CheckWX is a tool to help pilots better visualize weather data.  It is not intended as a substitute for an official pre-flight weather briefing.

15:13:43 UTC

KEIR METAR
Eugene Island
Eugene Island, Louisiana, USA
Current

19 mins ago

KEIR 261455Z AUTO 11007KT 100V160 9SM FEW028 FEW034 27/24 A3014 RMK A01
Observed
May-26 @ 14:55 UTC
Wind
  • 110° at 7 KTS
Visibility
9 SM
Flight Rules
VFR
Cloud Levels
  • Few at 2,800' AGL
  • Few at 3,400' AGL
Temperature
27°C / 81°F
Dewpoint
24°C / 75°F
Heat Index
31°C / 87°F
Humidity
84%
Altimeter
30.14" Hg
Pressure
1020.62 hPa
Previous

39 mins ago

KEIR 261435Z AUTO 11009KT 9SM FEW017 SCT022 SCT029 27/24 A3014 RMK A01
Observed
May-26 @ 14:35 UTC
Wind
  • 110° at 9 KTS
Visibility
9 SM
Flight Rules
VFR
Cloud Levels
  • Few at 1,700' AGL
  • Scattered at 2,200' AGL
  • Scattered at 2,900' AGL
Temperature
27°C / 81°F
Dewpoint
24°C / 75°F
Heat Index
31°C / 87°F
Humidity
84%
Altimeter
30.14" Hg
Pressure
1020.62 hPa
Previous

59 mins ago

KEIR 261415Z AUTO 11007KT 9SM BKN016 BKN024 BKN029 27/24 A3014 RMK A01
Observed
May-26 @ 14:15 UTC
Wind
  • 110° at 7 KTS
Visibility
9 SM
Flight Rules
MVFR
Cloud Levels
  • Broken at 1,600' AGL
  • Broken at 2,400' AGL
  • Broken at 2,900' AGL
Temperature
27°C / 81°F
Dewpoint
24°C / 75°F
Heat Index
31°C / 87°F
Humidity
84%
Altimeter
30.14" Hg
Pressure
1020.62 hPa